createdAt,value
2023-02-22T00:00:23.300Z,3.31
2023-02-22T00:04:47.823Z,3.22
2023-02-22T00:08:50.916Z,3.18
2023-02-22T00:12:54.854Z,3.03
2023-02-22T00:17:00.064Z,2.91
2023-02-22T00:21:04.550Z,2.91
2023-02-22T00:25:07.963Z,2.93
2023-02-22T00:29:10.556Z,2.94
2023-02-22T00:33:19.632Z,3.00
2023-02-22T00:37:24.584Z,3.06
2023-02-22T00:41:30.601Z,3.12
2023-02-22T00:45:35.536Z,3.19
2023-02-22T00:49:39.244Z,3.21
2023-02-22T00:53:43.656Z,3.19
2023-02-22T00:57:46.910Z,3.18
2023-02-22T01:01:50.019Z,3.10
2023-02-22T01:05:53.280Z,2.80
2023-02-22T01:09:57.901Z,2.46
2023-02-22T01:14:01.718Z,2.23
2023-02-22T01:18:05.365Z,2.12
2023-02-22T01:22:08.953Z,2.03
2023-02-22T01:26:13.892Z,1.92
2023-02-22T01:30:17.660Z,1.78
2023-02-22T01:34:21.015Z,1.62
2023-02-22T01:38:24.518Z,1.48
2023-02-22T01:42:30.895Z,1.35
2023-02-22T01:46:34.226Z,1.23
2023-02-22T01:50:42.864Z,1.10
2023-02-22T01:54:49.262Z,0.94
2023-02-22T01:58:59.707Z,0.78
2023-02-22T02:03:07.533Z,0.67
2023-02-22T02:07:14.523Z,0.57
2023-02-22T02:11:25.136Z,0.45
2023-02-22T02:15:32.273Z,0.45
2023-02-22T02:19:59.775Z,0.38
2023-02-22T02:24:31.360Z,0.28
2023-02-22T02:29:12.597Z,0.17
2023-02-22T02:33:23.203Z,0.01
2023-02-22T02:37:34.612Z,-0.12
2023-02-22T02:41:42.210Z,-0.20
2023-02-22T02:45:49.116Z,-0.32
2023-02-22T02:49:59.860Z,-0.37
2023-02-22T02:54:04.482Z,-0.40
2023-02-22T02:58:11.631Z,-0.51
2023-02-22T03:02:38.029Z,-0.47
2023-02-22T03:06:57.286Z,-0.34
2023-02-22T03:11:15.419Z,-0.32
2023-02-22T03:15:37.367Z,-0.40
2023-02-22T03:19:49.995Z,-0.55
2023-02-22T03:24:03.199Z,-0.51
2023-02-22T03:28:11.903Z,-0.51
2023-02-22T03:32:20.340Z,-0.44
2023-02-22T03:36:26.300Z,-0.39
2023-02-22T03:40:39.449Z,-0.52
2023-02-22T03:44:47.742Z,-0.67
2023-02-22T03:48:57.881Z,-0.75
2023-02-22T03:53:01.052Z,-0.85
2023-02-22T03:57:11.280Z,-1.00
2023-02-22T04:01:15.968Z,-1.15
2023-02-22T04:05:20.045Z,-1.23
2023-02-22T04:09:23.153Z,-1.34
2023-02-22T04:13:27.779Z,-1.43
2023-02-22T04:17:30.753Z,-1.52
2023-02-22T04:21:34.075Z,-1.58
2023-02-22T04:25:36.952Z,-1.57
2023-02-22T04:29:41.413Z,-1.67
2023-02-22T04:33:43.716Z,-1.83
2023-02-22T04:37:46.586Z,-1.95
2023-02-22T04:41:49.413Z,-2.09
2023-02-22T04:45:53.924Z,-2.15
2023-02-22T04:49:57.141Z,-1.97
2023-02-22T04:54:00.471Z,-1.82
2023-02-22T04:58:03.586Z,-1.62
2023-02-22T05:02:17.665Z,-1.34
2023-02-22T05:06:21.069Z,-1.14
2023-02-22T05:10:24.953Z,-0.85
2023-02-22T05:14:28.072Z,-0.57
2023-02-22T05:18:32.581Z,-0.36
2023-02-22T05:22:36.493Z,-0.23
2023-02-22T05:26:40.702Z,-0.15
2023-02-22T05:30:44.088Z,-0.09
2023-02-22T05:34:49.012Z,-0.02
2023-02-22T05:38:52.200Z,0.01
2023-02-22T05:42:56.945Z,0.08
2023-02-22T05:46:59.942Z,0.13
2023-02-22T05:51:06.684Z,0.12
2023-02-22T05:55:15.696Z,0.13
2023-02-22T05:59:18.824Z,0.20
2023-02-22T06:03:26.093Z,0.28
2023-02-22T06:07:35.384Z,0.35
2023-02-22T06:11:40.261Z,0.42
2023-02-22T06:15:43.476Z,0.47
2023-02-22T06:19:46.566Z,0.55
2023-02-22T06:23:51.035Z,0.63
2023-02-22T06:27:55.197Z,0.73
2023-02-22T06:32:01.148Z,0.82
2023-02-22T06:36:04.352Z,0.92
2023-02-22T06:40:12.781Z,1.04
2023-02-22T06:44:16.760Z,1.15
2023-02-22T06:48:20.183Z,1.30
2023-02-22T06:52:25.239Z,1.44
2023-02-22T06:56:33.094Z,1.61
2023-02-22T07:00:36.094Z,1.76
2023-02-22T07:04:40.403Z,1.87
2023-02-22T07:08:45.038Z,2.01
2023-02-22T07:12:50.398Z,2.13
2023-02-22T07:16:53.563Z,2.38
2023-02-22T07:20:58.866Z,2.66
2023-02-22T07:25:02.026Z,2.94
2023-02-22T07:29:06.846Z,3.05
2023-02-22T07:33:12.958Z,2.98
2023-02-22T07:37:16.404Z,3.05
2023-02-22T07:41:23.068Z,3.15
2023-02-22T07:45:34.012Z,3.16
2023-02-22T07:49:36.868Z,3.19
2023-02-22T07:53:39.790Z,3.14
2023-02-22T07:57:42.865Z,3.29
2023-02-22T08:01:46.999Z,3.39
2023-02-22T08:05:55.516Z,3.58
2023-02-22T08:09:58.545Z,3.70
2023-02-22T08:14:01.681Z,3.87
2023-02-22T08:18:09.292Z,4.06
2023-02-22T08:22:12.392Z,4.23
2023-02-22T08:26:18.739Z,4.38
2023-02-22T08:30:24.125Z,4.29
2023-02-22T08:34:30.879Z,4.22
2023-02-22T08:38:37.939Z,3.97
2023-02-22T08:42:40.980Z,3.79
2023-02-22T08:46:44.221Z,3.76
2023-02-22T08:50:49.220Z,3.75
2023-02-22T08:54:52.157Z,3.86
2023-02-22T08:58:55.137Z,3.84
2023-02-22T09:03:02.650Z,3.81
2023-02-22T09:07:07.564Z,3.73
2023-02-22T09:11:10.893Z,3.68
2023-02-22T09:15:14.435Z,3.58
2023-02-22T09:19:17.471Z,3.49
2023-02-22T09:23:22.424Z,3.42
2023-02-22T09:27:28.357Z,3.42
2023-02-22T09:31:32.872Z,3.39
2023-02-22T09:35:36.528Z,3.35
2023-02-22T09:39:42.235Z,3.41
2023-02-22T09:43:51.953Z,3.52
2023-02-22T09:48:05.275Z,3.66
2023-02-22T09:52:28.508Z,3.80
2023-02-22T09:56:35.222Z,3.89
2023-02-22T10:00:39.974Z,3.99
2023-02-22T10:04:49.613Z,4.05
2023-02-22T10:08:56.694Z,4.06
2023-02-22T10:13:10.604Z,4.02
2023-02-22T10:17:24.504Z,4.15
2023-02-22T10:22:05.398Z,4.39
2023-02-22T10:26:24.111Z,4.48
2023-02-22T10:30:35.280Z,4.55
2023-02-22T10:34:44.026Z,4.59
2023-02-22T10:38:52.889Z,4.47
2023-02-22T10:42:55.932Z,4.47
2023-02-22T10:47:02.701Z,4.64
2023-02-22T10:51:09.009Z,4.90
2023-02-22T10:55:16.179Z,5.03
2023-02-22T10:59:30.344Z,5.30
2023-02-22T11:03:35.870Z,5.55
2023-02-22T11:07:38.911Z,5.34
2023-02-22T11:11:44.105Z,5.18
2023-02-22T11:15:47.152Z,5.07
2023-02-22T11:19:54.208Z,5.05
2023-02-22T11:24:05.252Z,5.14
2023-02-22T11:28:11.068Z,5.33
2023-02-22T11:32:21.203Z,5.44
2023-02-22T11:36:40.847Z,5.71
2023-02-22T11:40:45.807Z,5.42
2023-02-22T11:44:50.275Z,5.13
2023-02-22T11:49:01.802Z,4.92
2023-02-22T11:53:26.869Z,4.71
2023-02-22T11:57:46.568Z,4.65
2023-02-22T12:01:55.345Z,4.65
2023-02-22T12:06:20.564Z,4.61
2023-02-22T12:10:40.236Z,4.52
2023-02-22T12:14:54.264Z,4.67
2023-02-22T12:19:13.056Z,4.65
2023-02-22T12:23:21.837Z,4.75
2023-02-22T12:27:33.372Z,4.71
2023-02-22T12:31:40.242Z,4.63
2023-02-22T12:35:50.637Z,4.52
2023-02-22T12:40:08.553Z,4.41
2023-02-22T12:44:20.390Z,4.26
2023-02-22T12:48:46.816Z,4.10
2023-02-22T12:52:58.102Z,4.06
2023-02-22T12:57:10.072Z,3.96
2023-02-22T13:01:20.448Z,3.88
2023-02-22T13:05:24.574Z,3.71
2023-02-22T13:09:55.457Z,3.57
2023-02-22T13:14:16.732Z,3.65
2023-02-22T13:18:29.881Z,3.72
2023-02-22T13:22:41.940Z,3.52
2023-02-22T13:26:51.965Z,3.46
2023-02-22T13:31:09.219Z,3.37
2023-02-22T13:35:41.547Z,3.17
2023-02-22T13:40:14.204Z,3.09
2023-02-22T13:44:48.083Z,3.02
2023-02-22T13:49:25.376Z,3.07
2023-02-22T13:53:39.217Z,3.04
2023-02-22T13:57:49.094Z,2.98
2023-02-22T14:01:55.191Z,2.97
2023-02-22T14:06:01.516Z,2.90
2023-02-22T14:10:07.048Z,2.83
2023-02-22T14:14:17.524Z,2.78
2023-02-22T14:18:21.847Z,2.70
2023-02-22T14:22:30.528Z,2.67
2023-02-22T14:26:39.112Z,2.63
2023-02-22T14:30:42.932Z,2.55
2023-02-22T14:34:51.059Z,2.43
2023-02-22T14:38:56.364Z,2.35
2023-02-22T14:43:05.378Z,2.25
2023-02-22T14:47:15.297Z,2.22
2023-02-22T14:51:25.138Z,2.18
2023-02-22T14:55:34.394Z,2.14
2023-02-22T14:59:50.154Z,2.11
2023-02-22T15:04:07.256Z,2.08
2023-02-22T15:08:11.677Z,1.95
2023-02-22T15:12:30.277Z,1.89
2023-02-22T15:16:36.642Z,1.84
2023-02-22T15:20:39.929Z,1.80
2023-02-22T15:25:01.641Z,1.77
2023-02-22T15:29:10.906Z,1.72
2023-02-22T15:33:24.332Z,1.64
2023-02-22T15:37:29.432Z,1.65
2023-02-22T15:41:36.533Z,1.58
2023-02-22T15:45:43.432Z,1.52
2023-02-22T15:50:08.508Z,1.44
2023-02-22T15:54:26.578Z,1.35
2023-02-22T15:58:31.481Z,1.28
2023-02-22T16:02:38.987Z,1.19
2023-02-22T16:06:43.971Z,1.13
2023-02-22T16:10:55.021Z,1.05
2023-02-22T16:14:58.731Z,0.98
2023-02-22T16:19:36.788Z,0.92
2023-02-22T16:23:50.636Z,0.90
2023-02-22T16:27:58.172Z,0.85
2023-02-22T16:32:02.307Z,0.81
2023-02-22T16:36:09.849Z,0.79
2023-02-22T16:40:25.152Z,0.79
2023-02-22T16:44:28.829Z,0.74
2023-02-22T16:48:38.452Z,0.72
2023-02-22T16:52:44.576Z,0.71
2023-02-22T16:56:51.359Z,0.69
2023-02-22T17:00:57.686Z,0.63
2023-02-22T17:05:01.187Z,0.60
2023-02-22T17:09:04.614Z,0.60
2023-02-22T17:13:22.461Z,0.59
2023-02-22T17:17:27.837Z,0.58
2023-02-22T17:21:31.347Z,0.55
2023-02-22T17:25:40.351Z,0.50
2023-02-22T17:29:49.281Z,0.48
2023-02-22T17:33:52.715Z,0.48
2023-02-22T17:37:55.693Z,0.45
2023-02-22T17:42:03.161Z,0.42
2023-02-22T17:46:12.167Z,0.40
2023-02-22T17:50:15.698Z,0.42
2023-02-22T17:54:21.780Z,0.40
2023-02-22T17:58:29.910Z,0.36
2023-02-22T18:02:34.809Z,0.34
2023-02-22T18:06:39.192Z,0.32
2023-02-22T18:10:44.019Z,0.33
2023-02-22T18:14:47.080Z,0.31
2023-02-22T18:18:51.625Z,0.30
2023-02-22T18:22:55.679Z,0.27
2023-02-22T18:26:58.847Z,0.27
2023-02-22T18:31:07.443Z,0.27
2023-02-22T18:35:17.422Z,0.27
2023-02-22T18:39:20.699Z,0.25
2023-02-22T18:43:23.757Z,0.23
2023-02-22T18:47:28.884Z,0.20
2023-02-22T18:51:33.783Z,0.19
2023-02-22T18:55:38.486Z,0.14
2023-02-22T18:59:41.644Z,0.10
2023-02-22T19:03:47.814Z,0.10
2023-02-22T19:07:56.350Z,0.01
2023-02-22T19:11:59.522Z,-0.08
2023-02-22T19:16:03.373Z,-0.17
2023-02-22T19:20:11.046Z,-0.26
2023-02-22T19:24:19.567Z,-0.26
2023-02-22T19:28:30.693Z,-0.20
2023-02-22T19:32:34.045Z,-0.18
2023-02-22T19:36:40.841Z,-0.17
2023-02-22T19:40:45.723Z,-0.16
2023-02-22T19:44:48.972Z,-0.16
2023-02-22T19:48:53.003Z,-0.15
2023-02-22T19:52:56.293Z,-0.10
2023-02-22T19:57:01.449Z,-0.02
2023-02-22T20:01:07.349Z,-0.03
2023-02-22T20:05:16.817Z,-0.03
2023-02-22T20:09:30.103Z,-0.03
2023-02-22T20:13:35.764Z,-0.05
2023-02-22T20:17:41.822Z,-0.05
2023-02-22T20:21:44.974Z,0.01
2023-02-22T20:25:54.289Z,0.03
2023-02-22T20:29:58.889Z,0.01
2023-02-22T20:34:02.964Z,0.04
2023-02-22T20:38:06.277Z,-0.01
2023-02-22T20:42:11.036Z,-0.01
2023-02-22T20:46:15.601Z,0.06
2023-02-22T20:50:20.522Z,0.02
2023-02-22T20:54:23.572Z,-0.02
2023-02-22T20:58:27.638Z,-0.05
2023-02-22T21:02:32.954Z,-0.08
2023-02-22T21:06:39.276Z,-0.12
2023-02-22T21:10:43.789Z,-0.15
2023-02-22T21:14:46.656Z,-0.08
2023-02-22T21:18:54.676Z,-0.10
2023-02-22T21:22:57.950Z,-0.15
2023-02-22T21:27:01.009Z,-0.20
2023-02-22T21:31:11.533Z,-0.23
2023-02-22T21:35:17.840Z,-0.26
2023-02-22T21:39:20.866Z,-0.26
2023-02-22T21:43:25.401Z,-0.27
2023-02-22T21:47:31.344Z,-0.30
2023-02-22T21:51:37.911Z,-0.31
2023-02-22T21:55:41.191Z,-0.33
2023-02-22T21:59:45.293Z,-0.27
2023-02-22T22:03:48.439Z,-0.35
2023-02-22T22:07:52.487Z,-0.34
2023-02-22T22:11:58.542Z,-0.34
2023-02-22T22:16:05.521Z,-0.29
2023-02-22T22:20:11.873Z,-0.33
2023-02-22T22:24:16.483Z,-0.39
2023-02-22T22:28:20.013Z,-0.48
2023-02-22T22:32:22.755Z,-0.57
2023-02-22T22:36:27.906Z,-0.49
2023-02-22T22:40:34.624Z,-0.55
2023-02-22T22:44:42.379Z,-0.60
2023-02-22T22:48:47.386Z,-0.63
2023-02-22T22:52:50.187Z,-0.70
2023-02-22T22:56:55.061Z,-0.78
2023-02-22T23:01:00.992Z,-1.08
2023-02-22T23:05:04.201Z,-1.39
2023-02-22T23:09:11.743Z,-1.54
2023-02-22T23:13:16.143Z,-1.67
2023-02-22T23:17:31.464Z,-1.80
2023-02-22T23:21:36.062Z,-2.06
2023-02-22T23:25:42.182Z,-1.96
2023-02-22T23:29:47.152Z,-1.85
2023-02-22T23:33:51.174Z,-2.04
2023-02-22T23:37:54.570Z,-2.24
2023-02-22T23:41:59.948Z,-2.34
2023-02-22T23:46:10.983Z,-2.43
2023-02-22T23:50:14.521Z,-2.49
2023-02-22T23:54:19.898Z,-2.42
2023-02-22T23:58:24.197Z,-2.42
